Data for 06/23/2006

Time Sea-Level Adjusted Pressure Absolute Pressure Temperature Relative Humidity Dew Point   
(mb) (inHg) (mb) (inHg) (C) (F) (%) (C) (F)
00:05 1024 30.24 853 25.19 15.1 59.2 62 8 46.5
00:10 1024 30.24 853 25.19 14.6 58.3 65 8.2 46.8
00:15 1024 30.24 853 25.19 14.5 58.2 65 8.1 46.6
00:20 1024 30.24 853 25.19 14.2 57.6 66 8 46.4
00:25 1024 30.24 853 25.19 14.1 57.3 66 8 46.3
00:30 1024 30.24 853 25.19 14.2 57.6 67 8.3 46.9
00:35 1024 30.24 853 25.19 14.4 57.9 67 8.3 47
00:40 1024 30.24 853 25.19 14.4 57.9 65 8.1 46.5
00:45 1024 30.24 853 25.19 14.1 57.4 66 8 46.3
00:50 1024 30.24 853 25.19 14 57.2 67 8 46.4
00:55 1024 30.24 853 25.19 14 57.3 69 8.4 47.2
01:00 1024 30.24 853 25.19 14 57.3 67 8 46.4
01:05 1024 30.24 853 25.19 13.7 56.6 67 7.8 46
01:10 1024 30.24 854 25.22 13.7 56.6 67 7.7 45.8
01:15 1024 30.24 854 25.22 13.5 56.3 68 7.8 46.1
01:20 1024 30.24 854 25.22 13.5 56.2 68 7.7 45.9
01:25 1024 30.24 854 25.22 13.4 56 68 7.7 45.9
01:30 1024 30.24 854 25.22 13.2 55.7 68 7.5 45.4
01:35 1025 30.27 854 25.22 13.1 55.5 69 7.5 45.5
01:40 1025 30.27 854 25.22 13.2 55.8 69 7.8 46
01:45 1025 30.27 854 25.22 13.5 56.3 64 6.9 44.4
01:50 1025 30.27 854 25.22 13.7 56.6 61 6.3 43.3
01:55 1025 30.27 854 25.22 13.9 56.9 61 6.6 44
02:00 1025 30.27 854 25.22 13.7 56.6 62 6.5 43.7
02:05 1025 30.27 854 25.22 13.5 56.2 66 7.2 45
02:10 1025 30.27 854 25.22 13.7 56.6 59 5.8 42.4
02:15 1025 30.27 854 25.22 13.8 56.8 59 5.9 42.6
02:20 1025 30.27 854 25.22 13.8 56.8 58 5.7 42.3
02:25 1025 30.27 854 25.22 13.7 56.7 58 5.7 42.2
02:30 1025 30.27 854 25.22 13.8 56.8 59 5.9 42.6
02:35 1025 30.27 854 25.22 14 57.1 53 4.7 40.5
02:40 1025 30.27 854 25.22 14.2 57.5 53 4.9 40.8
02:45 1025 30.27 854 25.22 14.1 57.4 52 4.6 40.2
02:50 1025 30.27 854 25.22 14.2 57.5 52 4.6 40.2
02:55 1025 30.27 854 25.22 14.3 57.7 51 4.5 40.1
03:00 1025 30.27 854 25.22 13.9 56.9 58 5.9 42.6
03:05 1025 30.27 854 25.22 13.5 56.3 53 4.1 39.4
03:10 1025 30.27 854 25.22 14 57.1 50 3.9 39
03:15 1025 30.27 854 25.22 14.1 57.4 54 5.1 41.1
03:20 1025 30.27 854 25.22 13.8 56.8 57 5.4 41.7
03:25 1025 30.27 854 25.22 13 55.4 61 5.6 42.1
03:30 1025 30.27 854 25.22 12.4 54.4 61 5.2 41.4
03:35 1025 30.27 854 25.22 12.4 54.3 59 4.6 40.4
03:40 1025 30.27 854 25.22 12.9 55.2 56 4.5 40
03:45 1025 30.27 854 25.22 12.9 55.3 56 4.4 39.9
03:50 1025 30.27 854 25.22 12.9 55.2 56 4.4 39.9
03:55 1025 30.27 854 25.22 12.7 54.8 57 4.4 39.9
04:00 1025 30.27 854 25.22 12.7 54.8 56 4.2 39.5
04:05 1025 30.27 854 25.22 12.6 54.6 59 4.7 40.5
04:10 1025 30.27 854 25.22 12.2 53.9 60 4.6 40.3
04:15 1025 30.27 854 25.22 12.1 53.8 58 4.2 39.6
04:20 1025 30.27 854 25.22 12.2 53.9 59 4.4 40
04:25 1025 30.27 854 25.22 12 53.6 60 4.5 40.1
04:30 1025 30.27 854 25.22 11.9 53.4 60 4.5 40
04:35 1025 30.27 855 25.25 11.8 53.3 60 4.4 39.9
04:40 1025 30.27 854 25.22 11.8 53.3 61 4.6 40.4
04:45 1025 30.27 855 25.25 11.5 52.8 62 4.5 40.2
04:50 1025 30.27 855 25.25 11.1 52 64 4.7 40.4
04:55 1025 30.27 855 25.25 10.8 51.4 65 4.6 40.3
05:00 1025 30.27 855 25.25 10.7 51.2 64 4.3 39.7
05:05 1025 30.27 855 25.25 10.7 51.2 65 4.4 40
05:10 1025 30.27 855 25.25 10.6 51.1 65 4.3 39.8
05:15 1025 30.27 855 25.25 10.6 51 65 4.3 39.7
05:20 1025 30.27 855 25.25 10.4 50.7 66 4.4 39.9
05:25 1025 30.27 855 25.25 9.9 49.9 67 4.2 39.6
05:30 1025 30.27 855 25.25 9.9 49.7 65 3.7 38.6
05:35 1025 30.27 855 25.25 10 50.1 67 4.2 39.5
05:40 1025 30.27 855 25.25 9.8 49.6 67 4 39.2
05:45 1025 30.27 855 25.25 9.8 49.6 66 3.8 38.9
05:50 1026 30.3 855 25.25 9.8 49.7 65 3.6 38.4
05:55 1026 30.3 855 25.25 10 50 63 3.4 38.1
06:00 1026 30.3 855 25.25 10.2 50.4 62 3.4 38.1
06:05 1026 30.3 855 25.25 10.3 50.5 63 3.5 38.3
06:10 1026 30.3 855 25.25 10.3 50.5 61 3.2 37.8
06:15 1026 30.3 855 25.25 10.6 51 59 3 37.4
06:20 1025 30.27 855 25.25 11 51.7 58 3 37.3
06:25 1026 30.3 855 25.25 11 51.9 58 3.2 37.8
06:30 1026 30.3 855 25.25 11.1 52 59 3.5 38.3
06:35 1026 30.3 855 25.25 11.1 51.9 58 3.3 37.9
06:40 1026 30.3 855 25.25 11.2 52.2 59 3.7 38.6
06:45 1026 30.3 855 25.25 11.4 52.4 59 3.7 38.6
06:50 1026 30.3 855 25.25 11.4 52.5 58 3.5 38.4
06:55 1026 30.3 855 25.25 11.5 52.8 58 3.7 38.7
07:00 1026 30.3 855 25.25 11.7 53.1 57 3.6 38.6
07:05 1026 30.3 855 25.25 12 53.6 57 3.7 38.6
07:10 1026 30.3 855 25.25 12.1 53.8 57 3.9 39
07:15 1026 30.3 855 25.25 12.3 54.2 57 4.1 39.3
07:20 1026 30.3 855 25.25 12.8 55 56 4.2 39.5
07:25 1026 30.3 855 25.25 13.4 56.1 53 4 39.3
07:30 1026 30.3 855 25.25 13.6 56.5 54 4.5 40.1
07:35 1026 30.3 855 25.25 13.7 56.6 53 4.3 39.7
07:40 1026 30.3 855 25.25 13.8 56.8 53 4.3 39.8
07:45 1026 30.3 855 25.25 14.1 57.3 53 4.6 40.3
07:50 1026 30.3 855 25.25 14.5 58.1 49 4 39.2
07:55 1026 30.3 855 25.25 15 59 47 3.9 39.1
08:00 1026 30.3 855 25.25 15.3 59.6 48 4.5 40.1
08:05 1026 30.3 855 25.25 16 60.7 45 4 39.2
08:10 1026 30.3 855 25.25 16.6 61.9 43 4.1 39.5
08:15 1026 30.3 855 25.25 16.7 62.1 43 4 39.3
08:20 1026 30.3 855 25.25 16.8 62.3 39 3 37.4
08:25 1026 30.3 855 25.25 17.1 62.8 39 3.1 37.6
08:30 1026 30.3 855 25.25 17.7 63.8 38 3.1 37.6
08:35 1026 30.3 855 25.25 18.3 65 35 2.9 37.2
08:40 1026 30.3 855 25.25 18.7 65.7 33 2.2 36
08:45 1026 30.3 855 25.25 18.8 65.9 34 2.8 37
08:50 1026 30.3 855 25.25 19.1 66.3 33 2.7 36.8
08:55 1026 30.3 855 25.25 19.1 66.5 34 3.2 37.7
09:00 1026 30.3 855 25.25 19.4 66.9 33 2.9 37.1
09:05 1026 30.3 855 25.25 19.7 67.4 33 3 37.3
09:10 1026 30.3 855 25.25 19.4 66.8 33 2.7 36.8
09:15 1026 30.3 855 25.25 19.2 66.6 34 3 37.5
09:20 1026 30.3 855 25.25 19.1 66.4 33 2.6 36.7
09:25 1026 30.3 855 25.25 19.3 66.7 34 3 37.4
09:30 1026 30.3 855 25.25 20.1 68.1 31 2.7 36.8
09:35 1026 30.3 855 25.25 19.8 67.6 33 3.3 37.9
09:40 1026 30.3 855 25.25 19.9 67.8 32 3 37.4
09:45 1026 30.3 855 25.25 20.9 69.6 31 3.2 37.8
09:50 1026 30.3 855 25.25 21.2 70.2 31 3.6 38.6
09:55 1026 30.3 855 25.25 21.2 70.2 31 3.5 38.2
10:00 1026 30.3 855 25.25 21.4 70.4 29 2.8 37
10:05 1026 30.3 855 25.25 20.1 68.2 30 2.3 36.1
10:10 1026 30.3 855 25.25 20.6 69.1 30 2.4 36.3
10:15 1026 30.3 855 25.25 21.7 71 27 2.3 36.1
10:20 1026 30.3 855 25.25 21.8 71.2 26 1.8 35.2
10:25 1026 30.3 855 25.25 22 71.7 28 2.9 37.3
10:30 1026 30.3 855 25.25 22.4 72.3 26 2.1 35.8
10:35 1026 30.3 855 25.25 21.4 70.6 27 1.9 35.4
10:40 1026 30.3 855 25.25 20.7 69.2 30 2.7 36.9
10:45 1026 30.3 855 25.25 21.6 70.8 28 2.5 36.4
10:50 1026 30.3 855 25.25 22.1 71.8 26 1.7 35.1
10:55 1026 30.3 855 25.25 22.4 72.3 25 1.6 34.9
11:00 1026 30.3 855 25.25 22.8 73 24 1.5 34.7
11:05 1026 30.3 855 25.25 22.9 73.3 26 2.6 36.7
11:10 1026 30.3 855 25.25 22.9 73.1 26 2.3 36.2
11:15 1026 30.3 855 25.25 21.9 71.3 29 3.1 37.6
11:20 1026 30.3 855 25.25 22.5 72.5 24 1.2 34.1
11:25 1026 30.3 855 25.25 22.4 72.3 25 1.3 34.4
11:30 1026 30.3 855 25.25 23.3 73.9 20 -0.9 30.4
11:35 1026 30.3 855 25.25 23 73.3 21 -0.1 31.8
11:40 1026 30.3 855 25.25 23.1 73.6 21 -0.1 31.7
11:45 1026 30.3 855 25.25 23.1 73.6 23 1.2 34.1
11:50 1026 30.3 855 25.25 23.6 74.6 23 1.6 34.9
11:55 1026 30.3 855 25.25 23.8 74.9 23 1.5 34.6
12:00 1026 30.3 855 25.25 23.4 74.1 24 1.8 35.2
12:05 1026 30.3 855 25.25 23.4 74.2 23 1.1 34
12:10 1026 30.3 855 25.25 23.4 74.1 20 -0.5 31
12:15 1026 30.3 855 25.25 23.5 74.3 21 0.2 32.4
12:20 1026 30.3 855 25.25 23 73.5 21 -0.1 31.8
12:25 1025 30.27 855 25.25 23.3 74 24 1.7 35.1
12:30 1025 30.27 855 25.25 23.3 74 23 1.3 34.4
12:35 1025 30.27 855 25.25 23.2 73.8 25 2.1 35.7
12:40 1025 30.27 855 25.25 23.8 74.8 23 1.5 34.7
12:45 1025 30.27 855 25.25 24.3 75.7 23 2 35.6
12:50 1025 30.27 854 25.22 24.2 75.6 24 2.7 36.8
12:55 1025 30.27 854 25.22 24 75.1 24 2.3 36.2
13:00 1025 30.27 854 25.22 24.3 75.7 24 2.8 37
13:05 1025 30.27 854 25.22 24.1 75.4 23 1.8 35.2
13:10 1025 30.27 854 25.22 24.3 75.7 22 1.5 34.6
13:15 1025 30.27 854 25.22 24.4 75.8 23 2.3 36.2
13:20 1025 30.27 854 25.22 24.4 76 23 2.2 35.9
13:25 1025 30.27 854 25.22 24.8 76.6 23 2.2 36
13:30 1025 30.27 854 25.22 25.3 77.5 23 2.8 37
13:35 1025 30.27 854 25.22 25.6 78.2 22 2.6 36.6
13:40 1025 30.27 854 25.22 25.1 77.3 24 3.3 37.9
13:45 1025 30.27 854 25.22 25.1 77.1 23 2.7 36.8
13:50 1025 30.27 854 25.22 24.8 76.6 25 3.4 38.2
13:55 1025 30.27 854 25.22 24.7 76.4 24 3.1 37.7
14:00 1025 30.27 854 25.22 24.8 76.7 24 3.2 37.7
14:05 1025 30.27 854 25.22 25 77 22 2.3 36.1
14:10 1025 30.27 854 25.22 24.7 76.4 24 3.1 37.5
14:15 1025 30.27 854 25.22 25.6 78 22 2.7 36.9
14:20 1025 30.27 854 25.22 25.9 78.5 23 3.3 37.9
14:25 1025 30.27 854 25.22 25.6 78 23 3.2 37.7
14:30 1025 30.27 854 25.22 25.3 77.6 23 3 37.3
14:35 1025 30.27 854 25.22 25.4 77.6 23 3.1 37.6
14:40 1025 30.27 854 25.22 25.2 77.4 23 2.8 37.1
14:45 1025 30.27 854 25.22 24.8 76.7 24 3.1 37.6
14:50 1025 30.27 854 25.22 25.1 77.2 23 3.1 37.5
14:55 1025 30.27 854 25.22 25.5 77.9 23 2.9 37.3
15:00 1025 30.27 854 25.22 25.8 78.5 23 3.4 38.2
15:05 1025 30.27 854 25.22 25.5 78 23 3.3 37.9
15:10 1025 30.27 854 25.22 25.4 77.8 23 2.9 37.2
15:15 1025 30.27 854 25.22 25.2 77.4 24 3.2 37.8
15:20 1025 30.27 854 25.22 25.3 77.6 23 2.8 37
15:25 1025 30.27 854 25.22 25.9 78.6 22 3 37.5
15:30 1025 30.27 854 25.22 26.5 79.6 21 2.4 36.3
15:35 1025 30.27 854 25.22 26.1 78.9 21 2.5 36.6
15:40 1025 30.27 854 25.22 25.9 78.5 22 2.5 36.5
15:45 1025 30.27 854 25.22 25.7 78.3 19 0.4 32.7
15:50 1025 30.27 854 25.22 26.2 79.1 20 2 35.5
15:55 1025 30.27 854 25.22 26.7 80 19 1.4 34.5
16:00 1025 30.27 854 25.22 27.2 81 19 2.3 36.1
16:05 1024 30.24 854 25.22 27 80.7 20 2.6 36.6
16:10 1024 30.24 854 25.22 26.8 80.2 20 2.1 35.9
16:15 1024 30.24 854 25.22 26.5 79.6 20 1.8 35.2
16:20 1024 30.24 854 25.22 26.7 80.1 20 1.9 35.5
16:25 1024 30.24 854 25.22 26.2 79.1 19 1.4 34.4
16:30 1024 30.24 854 25.22 26.3 79.3 20 1.6 34.8
16:35 1024 30.24 854 25.22 26.5 79.7 18 0.9 33.6
16:40 1024 30.24 853 25.19 26.5 79.7 19 1.4 34.5
16:45 1024 30.24 853 25.19 26.3 79.4 19 1.3 34.4
16:50 1024 30.24 853 25.19 26.2 79.2 20 1.9 35.4
16:55 1024 30.24 853 25.19 25.9 78.6 20 1.5 34.7
17:00 1024 30.24 853 25.19 25.3 77.6 21 1.8 35.3
17:05 1024 30.24 853 25.19 25 77 21 1.6 34.8
17:10 1024 30.24 853 25.19 25.3 77.6 21 1.6 34.9
17:15 1024 30.24 853 25.19 25.6 78.1 20 1.4 34.5
17:20 1024 30.24 853 25.19 25.3 77.6 20 1 33.9
17:25 1024 30.24 853 25.19 26.2 79.1 19 1.2 34.2
17:30 1024 30.24 853 25.19 26.5 79.7 19 1.6 34.8
17:35 1024 30.24 853 25.19 25.8 78.4 21 1.9 35.4
17:40 1024 30.24 853 25.19 25.3 77.5 21 1.7 35.1
17:45 1024 30.24 853 25.19 25.4 77.7 21 1.8 35.3
17:50 1024 30.24 853 25.19 24.9 76.7 21 1.2 34.1
17:55 1024 30.24 853 25.19 25.4 77.7 20 1 33.7
18:00 1024 30.24 853 25.19 25.4 77.8 21 1.5 34.7
18:05 1024 30.24 853 25.19 25.3 77.5 20 0.9 33.6
18:10 1024 30.24 853 25.19 25.3 77.6 20 1.3 34.3
18:15 1024 30.24 853 25.19 25 77 20 1 33.9
18:20 1024 30.24 853 25.19 25 76.9 21 1.3 34.3
18:25 1024 30.24 853 25.19 25.5 77.8 19 0.4 32.6
18:30 1024 30.24 853 25.19 25.3 77.6 20 0.9 33.6
18:35 1024 30.24 853 25.19 25.4 77.8 21 1.6 34.9
18:40 1024 30.24 853 25.19 25.2 77.3 20 0.8 33.5
18:45 1024 30.24 853 25.19 25 77 21 1.2 34.1
18:50 1024 30.24 854 25.22 24.8 76.6 22 2.2 35.9
18:55 1024 30.24 854 25.22 24.6 76.3 22 1.9 35.4
19:00 1024 30.24 854 25.22 24.8 76.6 22 1.7 35
19:05 1024 30.24 854 25.22 24.4 75.8 22 1.8 35.2
19:10 1025 30.27 854 25.22 24.1 75.3 23 2 35.6
19:15 1025 30.27 854 25.22 23.9 75 23 2 35.7
19:20 1025 30.27 854 25.22 24 75.3 24 2.7 36.9
19:25 1025 30.27 854 25.22 24.1 75.4 23 2.1 35.8
19:30 1025 30.27 854 25.22 24.1 75.5 24 2.5 36.5
19:35 1025 30.27 854 25.22 23.6 74.5 24 1.9 35.4
19:40 1025 30.27 854 25.22 23.4 74.1 24 1.8 35.3
19:45 1025 30.27 854 25.22 23.3 73.9 24 2.1 35.7
19:50 1025 30.27 854 25.22 23.4 74 25 2.7 36.8
19:55 1025 30.27 854 25.22 23.4 74.1 26 2.9 37.2
20:00 1025 30.27 854 25.22 23.2 73.7 25 2.3 36.2
20:05 1025 30.27 854 25.22 23.1 73.5 25 2.3 36.2
20:10 1025 30.27 854 25.22 22.9 73.2 25 2.2 35.9
20:15 1025 30.27 854 25.22 22.6 72.7 26 2.3 36.1
20:20 1025 30.27 854 25.22 22.4 72.4 25 1.9 35.4
20:25 1025 30.27 854 25.22 22.3 72.1 26 2.3 36.1
20:30 1025 30.27 854 25.22 22.2 71.9 27 2.4 36.3
20:35 1025 30.27 854 25.22 22.1 71.7 27 2.4 36.3
20:40 1025 30.27 854 25.22 21.8 71.3 26 1.7 35
20:45 1025 30.27 854 25.22 21.7 71 26 1.5 34.7
20:50 1025 30.27 854 25.22 21.3 70.3 27 1.5 34.7
20:55 1025 30.27 855 25.25 21.1 69.9 27 1.3 34.4
21:00 1025 30.27 855 25.25 20.9 69.5 27 1.2 34.2
21:05 1025 30.27 855 25.25 20.7 69.2 26 0.9 33.6
21:10 1026 30.3 855 25.25 20.5 68.9 27 1.3 34.3
21:15 1026 30.3 855 25.25 20.3 68.6 27 1.1 33.9
21:20 1026 30.3 855 25.25 20.2 68.3 28 1 33.9
21:25 1026 30.3 855 25.25 19.9 67.8 28 0.8 33.4
21:30 1026 30.3 855 25.25 19.4 67 32 2.6 36.7
21:35 1026 30.3 855 25.25 18.9 66 36 3.6 38.5
21:40 1026 30.3 855 25.25 18.6 65.5 30 0.6 33.1
21:45 1026 30.3 855 25.25 19.2 66.6 29 1 33.9
21:50 1026 30.3 855 25.25 19.5 67.1 30 1.7 35.1
21:55 1026 30.3 856 25.28 19.3 66.7 37 4.2 39.6
22:00 1026 30.3 856 25.28 18 64.4 40 4.4 39.9
22:05 1027 30.33 856 25.28 17.4 63.3 40 3.9 39
22:10 1027 30.33 856 25.28 17.2 63 40 3.7 38.7
22:15 1027 30.33 856 25.28 17.4 63.3 35 1.8 35.3
22:20 1027 30.33 856 25.28 17.5 63.5 39 3.7 38.6
22:25 1027 30.33 856 25.28 16.9 62.5 42 4.2 39.5
22:30 1027 30.33 856 25.28 16.4 61.4 44 4.2 39.6
22:35 1027 30.33 856 25.28 15.9 60.6 48 4.8 40.7
22:40 1027 30.33 856 25.28 15.6 60 49 4.9 40.9
22:45 1027 30.33 856 25.28 15.2 59.3 53 5.8 42.5
22:50 1027 30.33 856 25.28 15.2 59.3 49 4.7 40.5
22:55 1027 30.33 856 25.28 15.2 59.3 50 4.8 40.6
23:00 1027 30.33 856 25.28 15 58.9 51 4.9 40.9
23:05 1027 30.33 856 25.28 14.8 58.6 51 4.7 40.5
23:10 1027 30.33 856 25.28 14.6 58.2 51 4.6 40.2
23:15 1027 30.33 856 25.28 14.6 58.2 50 4.3 39.8
23:20 1027 30.33 856 25.28 14.6 58.3 48 3.7 38.6
23:25 1027 30.33 856 25.28 14.9 58.8 50 4.5 40.2
23:30 1027 30.33 857 25.31 14.8 58.6 46 3.4 38.2
23:35 1027 30.33 857 25.31 14.6 58.3 48 3.9 39
23:40 1027 30.33 857 25.31 13.9 57 46 2.6 36.6
23:45 1028 30.36 857 25.31 14 57.1 47 2.8 37
23:50 1028 30.36 857 25.31 14.4 58 41 1.5 34.8
23:55 1028 30.36 857 25.31 15.5 59.8 39 1.7 35.1
24:00 1028 30.36 857 25.31 15.9 60.6 40 2.2 36